createdAt,value
2017-08-01T00:00:41.546Z,1.80
2017-08-01T00:03:10.009Z,2.60
2017-08-01T00:05:38.601Z,2.30
2017-08-01T00:08:07.073Z,2.47
2017-08-01T00:10:35.494Z,2.80
2017-08-01T00:13:04.513Z,1.70
2017-08-01T00:15:33.015Z,1.63
2017-08-01T00:18:01.443Z,2.40
2017-08-01T00:20:30.019Z,1.73
2017-08-01T00:22:58.501Z,1.97
2017-08-01T00:25:26.922Z,1.50
2017-08-01T00:27:55.346Z,2.20
2017-08-01T00:30:23.761Z,1.80
2017-08-01T00:32:52.182Z,1.20
2017-08-01T00:35:20.676Z,2.30
2017-08-01T00:37:49.160Z,1.30
2017-08-01T00:40:17.644Z,1.33
2017-08-01T00:42:46.398Z,1.60
2017-08-01T00:45:14.808Z,1.23
2017-08-01T00:47:43.335Z,1.10
2017-08-01T00:50:12.043Z,1.37
2017-08-01T00:52:40.543Z,3.10
2017-08-01T00:55:12.047Z,2.63
2017-08-01T00:57:40.666Z,1.33
2017-08-01T01:00:09.344Z,1.33
2017-08-01T01:02:37.852Z,1.93
2017-08-01T01:05:06.451Z,1.83
2017-08-01T01:07:34.982Z,1.60
2017-08-01T01:10:03.484Z,2.00
2017-08-01T01:12:32.026Z,2.97
2017-08-01T01:15:00.517Z,4.00
2017-08-01T01:17:29.008Z,1.70
2017-08-01T01:19:57.714Z,1.50
2017-08-01T01:22:26.286Z,1.37
2017-08-01T01:24:54.771Z,3.03
2017-08-01T01:27:23.328Z,2.60
2017-08-01T01:29:51.770Z,2.00
2017-08-01T01:32:19.474Z,2.17
2017-08-01T01:34:47.406Z,1.57
2017-08-01T01:37:15.538Z,2.73
2017-08-01T01:39:43.261Z,2.60
2017-08-01T01:42:11.183Z,2.00
2017-08-01T01:44:39.026Z,2.87
2017-08-01T01:47:07.270Z,2.73
2017-08-01T01:49:35.699Z,2.53
2017-08-01T01:52:03.689Z,1.90
2017-08-01T01:54:31.813Z,1.70
2017-08-01T01:57:00.398Z,2.20
2017-08-01T01:59:28.916Z,3.10
2017-08-01T02:01:57.389Z,2.00
2017-08-01T02:04:25.985Z,5.00
2017-08-01T02:06:54.405Z,1.60
2017-08-01T02:09:22.815Z,2.40
2017-08-01T02:11:51.411Z,2.27
2017-08-01T02:14:19.899Z,2.37
2017-08-01T02:16:48.366Z,2.30
2017-08-01T02:19:17.326Z,2.50
2017-08-01T02:21:45.409Z,2.07
2017-08-01T02:24:13.132Z,2.60
2017-08-01T02:26:41.551Z,4.30
2017-08-01T02:29:09.666Z,2.17
2017-08-01T02:31:38.122Z,3.07
2017-08-01T02:34:07.086Z,1.37
2017-08-01T02:36:35.536Z,1.97
2017-08-01T02:39:03.606Z,1.83
2017-08-01T02:41:32.210Z,2.33
2017-08-01T02:44:00.714Z,1.80
2017-08-01T02:46:29.230Z,1.90
2017-08-01T02:48:57.734Z,1.80
2017-08-01T02:51:26.215Z,1.77
2017-08-01T02:53:54.641Z,2.00
2017-08-01T02:56:23.040Z,2.27
2017-08-01T02:58:51.492Z,1.57
2017-08-01T03:01:20.043Z,1.60
2017-08-01T03:03:48.778Z,1.80
2017-08-01T03:06:17.252Z,2.17
2017-08-01T03:08:45.330Z,1.53
2017-08-01T03:11:14.987Z,1.93
2017-08-01T03:13:43.419Z,1.70
2017-08-01T03:16:11.859Z,4.10
2017-08-01T03:18:41.339Z,1.60
2017-08-01T03:21:09.960Z,1.67
2017-08-01T03:23:38.461Z,1.80
2017-08-01T03:26:07.228Z,1.90
2017-08-01T03:28:35.682Z,1.60
2017-08-01T03:31:04.112Z,2.33
2017-08-01T03:33:32.748Z,2.10
2017-08-01T03:36:01.202Z,1.60
2017-08-01T03:38:29.639Z,1.93
2017-08-01T03:40:58.407Z,1.93
2017-08-01T03:43:26.832Z,2.97
2017-08-01T03:45:55.259Z,1.90
2017-08-01T03:48:23.770Z,1.93
2017-08-01T03:50:52.273Z,2.23
2017-08-01T03:53:20.691Z,1.77
2017-08-01T03:55:49.278Z,3.30
2017-08-01T03:58:17.748Z,2.40
2017-08-01T04:00:46.559Z,2.07
2017-08-01T04:03:15.255Z,1.70
2017-08-01T04:05:43.750Z,3.43
2017-08-01T04:08:12.231Z,1.67
2017-08-01T04:10:40.926Z,2.03
2017-08-01T04:13:09.463Z,2.10
2017-08-01T04:15:38.113Z,2.33
2017-08-01T04:18:06.660Z,1.57
2017-08-01T04:20:35.112Z,2.20
2017-08-01T04:23:04.654Z,1.90
2017-08-01T04:25:33.133Z,2.07
2017-08-01T04:28:01.601Z,1.80
2017-08-01T04:30:30.241Z,1.57
2017-08-01T04:32:58.745Z,1.60
2017-08-01T04:35:27.612Z,2.23
2017-08-01T04:37:56.281Z,2.53
2017-08-01T04:40:24.794Z,2.20
2017-08-01T04:42:53.250Z,2.70
2017-08-01T04:45:21.463Z,5.23
2017-08-01T04:47:50.039Z,2.70
2017-08-01T04:50:18.367Z,2.97
2017-08-01T04:52:46.887Z,2.60
2017-08-01T04:55:15.452Z,2.43
2017-08-01T04:57:43.883Z,2.53
2017-08-01T05:00:12.691Z,3.87
2017-08-01T05:02:41.264Z,3.07
2017-08-01T05:05:15.228Z,2.50
2017-08-01T05:07:43.830Z,3.00
2017-08-01T05:10:12.486Z,3.70
2017-08-01T05:12:42.676Z,2.77
2017-08-01T05:15:11.172Z,2.47
2017-08-01T05:17:40.776Z,2.93
2017-08-01T05:20:09.334Z,2.07
2017-08-01T05:22:38.638Z,2.30
2017-08-01T05:25:08.050Z,2.80
2017-08-01T05:27:41.498Z,3.23
2017-08-01T05:30:16.317Z,3.43
2017-08-01T05:32:49.179Z,2.27
2017-08-01T05:35:17.992Z,3.30
2017-08-01T05:37:46.474Z,2.47
2017-08-01T05:40:14.916Z,2.30
2017-08-01T05:42:46.199Z,2.53
2017-08-01T05:45:14.767Z,2.13
2017-08-01T05:47:43.239Z,4.40
2017-08-01T05:50:12.854Z,4.17
2017-08-01T05:52:41.740Z,3.27
2017-08-01T05:55:17.787Z,3.27
2017-08-01T05:57:46.348Z,3.70
2017-08-01T06:00:16.213Z,3.83
2017-08-01T06:02:47.192Z,5.43
2017-08-01T06:05:18.691Z,3.70
2017-08-01T06:07:48.199Z,3.40
2017-08-01T06:10:18.263Z,2.77
2017-08-01T06:12:48.364Z,3.53
2017-08-01T06:15:17.383Z,4.27
2017-08-01T06:17:45.825Z,4.83
2017-08-01T06:20:17.358Z,3.33
2017-08-01T06:22:46.864Z,2.80
2017-08-01T06:25:17.390Z,3.77
2017-08-01T06:27:47.580Z,3.77
2017-08-01T06:30:18.848Z,5.20
2017-08-01T06:32:47.514Z,3.53
2017-08-01T06:35:17.860Z,4.67
2017-08-01T06:37:47.355Z,5.50
2017-08-01T06:40:18.266Z,4.33
2017-08-01T06:42:49.030Z,3.37
2017-08-01T06:45:18.867Z,6.97
2017-08-01T06:47:47.404Z,3.47
2017-08-01T06:50:17.452Z,3.47
2017-08-01T06:52:45.878Z,3.67
2017-08-01T06:55:17.724Z,3.10
2017-08-01T06:57:47.798Z,3.90
2017-08-01T07:00:16.575Z,7.07
2017-08-01T07:02:45.069Z,4.27
2017-08-01T07:05:15.540Z,4.63
2017-08-01T07:07:44.661Z,3.17
2017-08-01T07:10:14.326Z,4.27
2017-08-01T07:12:43.508Z,5.40
2017-08-01T07:15:12.183Z,3.73
2017-08-01T07:17:40.856Z,4.60
2017-08-01T07:20:11.266Z,5.63
2017-08-01T07:22:42.610Z,4.63
2017-08-01T07:25:13.441Z,4.87
2017-08-01T07:27:46.848Z,8.50
2017-08-01T07:30:19.220Z,4.70
2017-08-01T07:32:47.793Z,5.27
2017-08-01T07:35:16.452Z,3.70
2017-08-01T07:37:47.066Z,8.00
2017-08-01T07:40:15.553Z,4.60
2017-08-01T07:42:44.053Z,6.37
2017-08-01T07:45:12.517Z,4.30
2017-08-01T07:47:40.940Z,3.73
2017-08-01T07:50:09.445Z,3.63
2017-08-01T07:52:37.937Z,4.40
2017-08-01T07:55:06.393Z,7.40
2017-08-01T07:57:35.592Z,7.73
2017-08-01T08:00:03.980Z,4.67
2017-08-01T08:02:32.445Z,3.97
2017-08-01T08:05:00.934Z,5.00
2017-08-01T08:07:29.469Z,4.40
2017-08-01T08:10:00.366Z,4.17
2017-08-01T08:12:28.882Z,4.10
2017-08-01T08:14:57.338Z,4.10
2017-08-01T08:17:25.812Z,6.77
2017-08-01T08:19:54.311Z,4.80
2017-08-01T08:22:22.734Z,5.40
2017-08-01T08:24:51.128Z,5.23
2017-08-01T08:27:19.905Z,4.77
2017-08-01T08:29:48.363Z,4.53
2017-08-01T08:32:16.781Z,3.90
2017-08-01T08:34:45.334Z,6.63
2017-08-01T08:37:13.722Z,4.50
2017-08-01T08:39:42.114Z,5.17
2017-08-01T08:42:10.867Z,7.10
2017-08-01T08:44:39.308Z,5.93
2017-08-01T08:47:10.374Z,4.90
2017-08-01T08:49:39.067Z,4.90
2017-08-01T08:52:07.488Z,6.47
2017-08-01T08:54:35.989Z,6.00
2017-08-01T08:57:04.518Z,5.00
2017-08-01T08:59:32.994Z,3.77
2017-08-01T09:02:01.446Z,8.27
2017-08-01T09:04:29.878Z,6.03
2017-08-01T09:06:58.345Z,4.00
2017-08-01T09:09:26.872Z,9.83
2017-08-01T09:11:55.324Z,5.50
2017-08-01T09:14:23.787Z,7.10
2017-08-01T09:16:52.311Z,8.40
2017-08-01T09:19:21.011Z,8.47
2017-08-01T09:21:50.089Z,8.47
2017-08-01T09:24:18.713Z,10.47
2017-08-01T09:26:47.350Z,10.33
2017-08-01T09:29:15.810Z,15.97
2017-08-01T09:31:45.151Z,11.57
2017-08-01T09:34:13.823Z,13.60
2017-08-01T09:36:42.437Z,12.07
2017-08-01T09:39:15.211Z,15.60
2017-08-01T09:41:48.933Z,16.53
2017-08-01T09:44:18.889Z,13.03
2017-08-01T09:46:55.022Z,14.20
2017-08-01T09:49:29.655Z,15.17
2017-08-01T09:51:59.893Z,12.50
2017-08-01T09:54:29.748Z,13.27
2017-08-01T09:56:59.986Z,12.37
2017-08-01T09:59:29.344Z,14.03
2017-08-01T10:02:03.097Z,20.43
2017-08-01T10:04:43.600Z,20.23
2017-08-01T10:07:18.204Z,17.60
2017-08-01T10:09:49.903Z,17.77
2017-08-01T10:12:21.099Z,15.90
2017-08-01T10:14:50.126Z,19.60
2017-08-01T10:17:18.848Z,11.97
2017-08-01T10:19:48.210Z,18.60
2017-08-01T10:22:19.762Z,13.67
2017-08-01T10:24:51.846Z,15.50
2017-08-01T10:27:20.298Z,14.00
2017-08-01T10:29:48.902Z,14.77
2017-08-01T10:32:18.239Z,13.90
2017-08-01T10:34:48.686Z,17.70
2017-08-01T10:37:18.719Z,16.03
2017-08-01T10:39:47.249Z,14.10
2017-08-01T10:42:20.681Z,13.43
2017-08-01T10:44:49.108Z,14.57
2017-08-01T10:47:18.695Z,16.70
2017-08-01T10:49:47.216Z,13.83
2017-08-01T10:52:18.661Z,16.13
2017-08-01T10:54:47.309Z,18.77
2017-08-01T10:57:16.784Z,15.70
2017-08-01T10:59:45.283Z,16.30
2017-08-01T11:02:17.842Z,20.23
2017-08-01T11:04:49.171Z,18.00
2017-08-01T11:07:18.928Z,13.87
2017-08-01T11:09:49.262Z,15.60
2017-08-01T11:12:19.056Z,16.77
2017-08-01T11:14:49.041Z,16.93
2017-08-01T11:17:19.219Z,16.07
2017-08-01T11:19:48.506Z,24.50
2017-08-01T11:22:18.570Z,20.57
2017-08-01T11:24:47.304Z,19.63
2017-08-01T11:27:15.865Z,17.17
2017-08-01T11:29:44.399Z,20.87
2017-08-01T11:32:12.973Z,21.43
2017-08-01T11:34:41.557Z,15.47
2017-08-01T11:37:10.209Z,15.73
2017-08-01T11:39:38.804Z,18.37
2017-08-01T11:42:07.425Z,23.63
2017-08-01T11:44:36.089Z,23.50
2017-08-01T11:47:04.507Z,21.73
2017-08-01T11:49:34.645Z,18.30
2017-08-01T11:52:03.365Z,19.97
2017-08-01T11:54:32.949Z,20.33
2017-08-01T11:57:04.735Z,19.87
2017-08-01T11:59:33.387Z,21.47
2017-08-01T12:02:01.656Z,25.47
2017-08-01T12:04:31.363Z,18.47
2017-08-01T12:07:00.945Z,20.70
2017-08-01T12:09:32.484Z,19.33
2017-08-01T12:12:01.179Z,21.53
2017-08-01T12:14:29.780Z,22.13
2017-08-01T12:17:00.073Z,18.73
2017-08-01T12:19:28.634Z,20.50
2017-08-01T12:21:57.482Z,22.27
2017-08-01T12:24:28.006Z,24.90
2017-08-01T12:26:56.780Z,28.27
2017-08-01T12:29:25.313Z,20.50
2017-08-01T12:31:53.730Z,23.27
2017-08-01T12:34:22.260Z,21.37
2017-08-01T12:36:51.210Z,18.70
2017-08-01T12:39:21.746Z,19.50
2017-08-01T12:41:51.414Z,20.03
2017-08-01T12:44:22.065Z,22.13
2017-08-01T12:46:50.578Z,20.23
2017-08-01T12:49:20.331Z,17.50
2017-08-01T12:51:49.913Z,20.00
2017-08-01T12:54:19.336Z,26.10
2017-08-01T12:56:48.777Z,20.30
2017-08-01T12:59:17.273Z,28.07
2017-08-01T13:01:45.770Z,15.50
2017-08-01T13:04:18.654Z,14.80
2017-08-01T13:06:50.453Z,21.73
2017-08-01T13:09:19.061Z,21.63
2017-08-01T13:11:49.065Z,18.23
2017-08-01T13:14:19.445Z,17.87
2017-08-01T13:16:48.915Z,22.70
2017-08-01T13:19:17.685Z,18.63
2017-08-01T13:21:49.047Z,19.90
2017-08-01T13:24:17.587Z,16.80
2017-08-01T13:26:48.844Z,18.50
2017-08-01T13:29:19.858Z,18.77
2017-08-01T13:31:50.168Z,16.97
2017-08-01T13:34:19.889Z,17.20
2017-08-01T13:36:49.744Z,13.23
2017-08-01T13:39:19.712Z,17.40
2017-08-01T13:41:48.424Z,15.47
2017-08-01T13:44:18.637Z,15.60
2017-08-01T13:46:50.909Z,12.20
2017-08-01T13:49:19.598Z,14.57
2017-08-01T13:51:48.812Z,13.60
2017-08-01T13:54:17.754Z,15.73
2017-08-01T13:56:46.656Z,10.23
2017-08-01T13:59:15.273Z,9.47
2017-08-01T14:01:43.826Z,14.70
2017-08-01T14:04:12.522Z,10.40
2017-08-01T14:06:44.024Z,12.27
2017-08-01T14:09:12.660Z,19.57
2017-08-01T14:11:41.414Z,10.97
2017-08-01T14:14:11.581Z,13.73
2017-08-01T14:16:40.872Z,13.60
2017-08-01T14:19:09.378Z,13.03
2017-08-01T14:21:42.763Z,13.27
2017-08-01T14:24:11.281Z,11.80
2017-08-01T14:26:39.851Z,13.43
2017-08-01T14:29:15.473Z,14.63
2017-08-01T14:31:44.076Z,14.73
2017-08-01T14:34:14.015Z,14.07
2017-08-01T14:36:42.958Z,17.10
2017-08-01T14:39:11.720Z,15.43
2017-08-01T14:41:41.349Z,23.67
2017-08-01T14:44:20.682Z,18.40
2017-08-01T14:46:49.919Z,18.37
2017-08-01T14:49:18.418Z,19.20
2017-08-01T14:51:49.499Z,17.23
2017-08-01T14:54:18.770Z,19.40
2017-08-01T14:56:51.234Z,17.27
2017-08-01T14:59:20.537Z,11.53
2017-08-01T15:01:49.651Z,14.40
2017-08-01T15:04:21.255Z,15.27
2017-08-01T15:06:50.253Z,23.67
2017-08-01T15:09:21.314Z,12.43
2017-08-01T15:11:49.738Z,15.10
2017-08-01T15:14:20.694Z,17.00
2017-08-01T15:16:51.221Z,18.30
2017-08-01T15:19:22.050Z,17.70
2017-08-01T15:21:51.644Z,21.97
2017-08-01T15:24:21.218Z,23.23
2017-08-01T15:26:49.976Z,21.50
2017-08-01T15:29:19.266Z,19.47
2017-08-01T15:31:48.479Z,25.30
2017-08-01T15:34:17.982Z,23.53
2017-08-01T15:36:47.358Z,20.67
2017-08-01T15:39:19.119Z,25.27
2017-08-01T15:41:48.729Z,17.93
2017-08-01T15:44:18.363Z,22.30
2017-08-01T15:46:48.972Z,17.40
2017-08-01T15:49:17.785Z,19.40
2017-08-01T15:51:47.223Z,19.40
2017-08-01T15:54:17.191Z,20.27
2017-08-01T15:56:46.010Z,20.53
2017-08-01T15:59:17.898Z,23.47
2017-08-01T16:01:48.501Z,28.00
2017-08-01T16:04:18.604Z,26.97
2017-08-01T16:06:48.498Z,23.17
2017-08-01T16:09:17.554Z,16.70
2017-08-01T16:11:48.062Z,23.20
2017-08-01T16:14:19.367Z,19.80
2017-08-01T16:16:48.450Z,21.80
2017-08-01T16:19:20.365Z,26.73
2017-08-01T16:21:48.642Z,18.53
2017-08-01T16:24:18.686Z,24.40
2017-08-01T16:26:47.327Z,18.03
2017-08-01T16:29:16.745Z,19.93
2017-08-01T16:31:55.708Z,20.10
2017-08-01T16:34:28.389Z,17.03
2017-08-01T16:36:59.013Z,29.53
2017-08-01T16:39:31.098Z,20.37
2017-08-01T16:41:59.643Z,19.03
2017-08-01T16:44:29.112Z,17.47
2017-08-01T16:46:59.190Z,16.83
2017-08-01T16:49:28.791Z,23.27
2017-08-01T16:51:59.196Z,20.50
2017-08-01T16:54:29.142Z,16.03
2017-08-01T16:56:58.520Z,19.77
2017-08-01T16:59:28.016Z,17.97
2017-08-01T17:01:59.647Z,20.50
2017-08-01T17:04:29.138Z,14.43
2017-08-01T17:07:01.108Z,17.63
2017-08-01T17:09:29.548Z,18.10
2017-08-01T17:11:58.139Z,14.03
2017-08-01T17:14:29.629Z,13.57
2017-08-01T17:17:00.213Z,17.63
2017-08-01T17:19:29.556Z,22.40
2017-08-01T17:21:59.414Z,13.50
2017-08-01T17:24:31.019Z,20.47
2017-08-01T17:26:59.573Z,13.40
2017-08-01T17:29:49.455Z,16.83
2017-08-01T17:32:22.764Z,13.13
2017-08-01T17:34:51.298Z,11.63
2017-08-01T17:37:19.739Z,16.53
2017-08-01T17:39:50.570Z,16.80
2017-08-01T17:42:19.968Z,16.30
2017-08-01T17:44:49.395Z,16.70
2017-08-01T17:47:19.951Z,16.97
2017-08-01T17:49:48.463Z,18.10
2017-08-01T17:52:19.924Z,22.50
2017-08-01T17:54:48.490Z,17.10
2017-08-01T17:57:16.960Z,20.63
2017-08-01T17:59:51.174Z,17.30
2017-08-01T18:02:19.810Z,18.23
2017-08-01T18:04:49.765Z,29.23
2017-08-01T18:07:20.296Z,13.37
2017-08-01T18:09:49.743Z,21.80
2017-08-01T18:12:19.663Z,20.30
2017-08-01T18:14:49.600Z,14.93
2017-08-01T18:17:19.982Z,13.40
2017-08-01T18:19:49.450Z,14.97
2017-08-01T18:22:21.215Z,21.53
2017-08-01T18:24:49.918Z,12.87
2017-08-01T18:27:20.253Z,13.40
2017-08-01T18:29:51.658Z,14.97
2017-08-01T18:32:20.087Z,16.60
2017-08-01T18:34:50.260Z,19.73
2017-08-01T18:37:20.147Z,17.27
2017-08-01T18:39:48.731Z,15.40
2017-08-01T18:42:21.100Z,15.93
2017-08-01T18:44:50.425Z,16.00
2017-08-01T18:47:19.583Z,19.30
2017-08-01T18:49:50.913Z,20.63
2017-08-01T18:52:19.448Z,16.00
2017-08-01T18:54:51.416Z,16.97
2017-08-01T18:57:19.927Z,13.27
2017-08-01T18:59:50.250Z,17.87
2017-08-01T19:02:19.675Z,14.00
2017-08-01T19:04:49.687Z,16.00
2017-08-01T19:07:18.231Z,15.17
2017-08-01T19:09:46.491Z,12.90
2017-08-01T19:12:18.253Z,15.07
2017-08-01T19:14:48.396Z,13.40
2017-08-01T19:17:19.401Z,15.63
2017-08-01T19:19:49.340Z,15.83
2017-08-01T19:22:19.603Z,11.97
2017-08-01T19:24:49.759Z,17.73
2017-08-01T19:27:20.071Z,14.60
2017-08-01T19:29:50.054Z,13.33
2017-08-01T19:32:20.135Z,17.90
2017-08-01T19:34:50.271Z,16.30
2017-08-01T19:37:20.903Z,13.47
2017-08-01T19:39:50.376Z,12.90
2017-08-01T19:42:21.836Z,13.67
2017-08-01T19:44:50.317Z,17.13
2017-08-01T19:47:20.054Z,13.00
2017-08-01T19:49:49.153Z,15.30
2017-08-01T19:52:19.159Z,12.80
2017-08-01T19:54:47.626Z,12.83
2017-08-01T19:57:19.674Z,13.03
2017-08-01T19:59:49.985Z,11.33
2017-08-01T20:02:19.503Z,10.87
2017-08-01T20:04:49.428Z,14.53
2017-08-01T20:07:18.814Z,9.60
2017-08-01T20:09:49.141Z,10.83
2017-08-01T20:12:20.347Z,11.43
2017-08-01T20:14:48.779Z,9.90
2017-08-01T20:17:20.157Z,12.17
2017-08-01T20:19:48.646Z,16.33
2017-08-01T20:22:20.798Z,11.03
2017-08-01T20:24:51.037Z,10.13
2017-08-01T20:27:19.498Z,9.90
2017-08-01T20:29:53.359Z,11.03
2017-08-01T20:32:25.436Z,11.73
2017-08-01T20:34:59.291Z,11.23
2017-08-01T20:37:31.560Z,14.73
2017-08-01T20:39:59.969Z,9.67
2017-08-01T20:42:29.505Z,11.00
2017-08-01T20:44:59.617Z,12.17
2017-08-01T20:47:28.677Z,15.73
2017-08-01T20:50:00.404Z,10.87
2017-08-01T20:52:28.861Z,11.23
2017-08-01T20:55:00.278Z,9.60
2017-08-01T20:57:28.793Z,10.23
2017-08-01T20:59:59.075Z,11.30
2017-08-01T21:02:30.314Z,10.40
2017-08-01T21:05:01.676Z,10.57
2017-08-01T21:07:30.204Z,10.03
2017-08-01T21:09:59.732Z,10.70
2017-08-01T21:12:28.480Z,9.00
2017-08-01T21:14:59.644Z,9.90
2017-08-01T21:17:30.514Z,10.27
2017-08-01T21:20:00.462Z,9.90
2017-08-01T21:22:29.023Z,10.17
2017-08-01T21:24:57.471Z,9.97
2017-08-01T21:27:27.204Z,10.50
2017-08-01T21:29:55.835Z,10.60
2017-08-01T21:32:25.600Z,9.63
2017-08-01T21:34:58.560Z,9.90
2017-08-01T21:37:28.173Z,11.57
2017-08-01T21:39:57.523Z,11.57
2017-08-01T21:42:26.746Z,12.47
2017-08-01T21:44:55.204Z,11.90
2017-08-01T21:47:31.306Z,11.93
2017-08-01T21:50:00.750Z,12.23
2017-08-01T21:52:29.256Z,13.50
2017-08-01T21:54:58.483Z,11.70
2017-08-01T21:57:27.826Z,12.50
2017-08-01T21:59:56.262Z,12.83
2017-08-01T22:02:30.933Z,13.03
2017-08-01T22:04:59.413Z,10.07
2017-08-01T22:07:28.834Z,11.23
2017-08-01T22:09:57.435Z,12.03
2017-08-01T22:12:27.017Z,12.20
2017-08-01T22:14:56.045Z,12.23
2017-08-01T22:17:34.259Z,11.60
2017-08-01T22:20:02.792Z,10.67
2017-08-01T22:22:31.253Z,13.20
2017-08-01T22:25:00.252Z,12.17
2017-08-01T22:27:28.739Z,11.93
2017-08-01T22:29:57.340Z,10.83
2017-08-01T22:32:27.122Z,9.77
2017-08-01T22:34:56.282Z,10.93
2017-08-01T22:37:24.881Z,9.77
2017-08-01T22:39:53.488Z,10.70
2017-08-01T22:42:23.092Z,9.50
2017-08-01T22:44:54.199Z,9.50
2017-08-01T22:47:23.664Z,8.90
2017-08-01T22:49:53.895Z,9.33
2017-08-01T22:52:24.307Z,9.20
2017-08-01T22:54:52.987Z,10.00
2017-08-01T22:57:21.496Z,9.47
2017-08-01T22:59:50.719Z,9.00
2017-08-01T23:02:20.228Z,7.97
2017-08-01T23:04:48.961Z,7.93
2017-08-01T23:07:17.640Z,7.17
2017-08-01T23:09:46.162Z,7.13
2017-08-01T23:12:15.612Z,6.90
2017-08-01T23:14:44.241Z,7.23
2017-08-01T23:17:17.522Z,8.10
2017-08-01T23:19:45.921Z,8.00
2017-08-01T23:22:17.891Z,7.03
2017-08-01T23:24:46.519Z,7.30
2017-08-01T23:27:15.250Z,6.73
2017-08-01T23:29:43.961Z,7.17
2017-08-01T23:32:12.569Z,7.37
2017-08-01T23:34:42.185Z,7.40
2017-08-01T23:37:16.275Z,6.70
2017-08-01T23:39:44.923Z,6.37
2017-08-01T23:42:13.369Z,6.63
2017-08-01T23:44:42.743Z,6.10
2017-08-01T23:47:11.364Z,7.97
2017-08-01T23:52:15.522Z,5.70
2017-08-01T23:54:44.093Z,5.80
2017-08-01T23:57:12.759Z,6.20
2017-08-01T23:59:41.315Z,5.90
